sensor_id;sensor_type;location;lat;lon;timestamp;temperature;humidity
12726;DHT22;6427;49.754;6.106;2023-05-10T00:02:00;13.60;99.90
12726;DHT22;6427;49.754;6.106;2023-05-10T00:04:27;13.60;99.90
12726;DHT22;6427;49.754;6.106;2023-05-10T00:06:55;13.60;99.90
12726;DHT22;6427;49.754;6.106;2023-05-10T00:09:22;13.50;99.90
12726;DHT22;6427;49.754;6.106;2023-05-10T00:11:51;13.50;99.90
12726;DHT22;6427;49.754;6.106;2023-05-10T00:14:18;13.50;99.90
12726;DHT22;6427;49.754;6.106;2023-05-10T00:16:47;13.50;99.90
12726;DHT22;6427;49.754;6.106;2023-05-10T00:19:15;13.40;99.90
12726;DHT22;6427;49.754;6.106;2023-05-10T00:21:42;13.40;99.90
12726;DHT22;6427;49.754;6.106;2023-05-10T00:24:10;13.40;99.90
12726;DHT22;6427;49.754;6.106;2023-05-10T00:26:38;13.40;99.90
12726;DHT22;6427;49.754;6.106;2023-05-10T00:29:05;13.40;99.90
12726;DHT22;6427;49.754;6.106;2023-05-10T00:31:33;13.40;99.90
12726;DHT22;6427;49.754;6.106;2023-05-10T00:34:01;13.50;99.90
12726;DHT22;6427;49.754;6.106;2023-05-10T00:36:30;13.40;99.90
12726;DHT22;6427;49.754;6.106;2023-05-10T00:38:58;13.40;99.90
12726;DHT22;6427;49.754;6.106;2023-05-10T00:41:26;13.40;99.90
12726;DHT22;6427;49.754;6.106;2023-05-10T00:43:53;13.40;99.90
12726;DHT22;6427;49.754;6.106;2023-05-10T00:46:21;13.30;99.90
12726;DHT22;6427;49.754;6.106;2023-05-10T00:48:49;13.30;99.90
12726;DHT22;6427;49.754;6.106;2023-05-10T00:51:17;13.20;99.90
12726;DHT22;6427;49.754;6.106;2023-05-10T00:53:48;13.20;99.90
12726;DHT22;6427;49.754;6.106;2023-05-10T00:56:16;13.30;99.90
12726;DHT22;6427;49.754;6.106;2023-05-10T00:58:43;13.30;99.90
12726;DHT22;6427;49.754;6.106;2023-05-10T01:01:11;13.30;99.90
12726;DHT22;6427;49.754;6.106;2023-05-10T01:03:39;13.20;99.90
12726;DHT22;6427;49.754;6.106;2023-05-10T01:06:07;13.20;99.90
12726;DHT22;6427;49.754;6.106;2023-05-10T01:08:34;13.20;99.90
12726;DHT22;6427;49.754;6.106;2023-05-10T01:11:02;13.20;99.90
12726;DHT22;6427;49.754;6.106;2023-05-10T01:13:33;13.10;99.90
12726;DHT22;6427;49.754;6.106;2023-05-10T01:16:00;13.10;99.90
12726;DHT22;6427;49.754;6.106;2023-05-10T01:18:29;13.10;99.90
12726;DHT22;6427;49.754;6.106;2023-05-10T01:21:09;13.10;99.90
12726;DHT22;6427;49.754;6.106;2023-05-10T01:26:36;13.10;99.90
12726;DHT22;6427;49.754;6.106;2023-05-10T01:29:16;13.00;99.90
12726;DHT22;6427;49.754;6.106;2023-05-10T01:34:40;13.00;99.90
12726;DHT22;6427;49.754;6.106;2023-05-10T01:37:07;13.00;99.90
12726;DHT22;6427;49.754;6.106;2023-05-10T01:39:47;13.30;99.90
12726;DHT22;6427;49.754;6.106;2023-05-10T01:42:25;13.30;99.90
12726;DHT22;6427;49.754;6.106;2023-05-10T01:45:13;13.30;99.90
12726;DHT22;6427;49.754;6.106;2023-05-10T01:47:37;13.30;99.90
12726;DHT22;6427;49.754;6.106;2023-05-10T01:50:04;13.30;99.90
12726;DHT22;6427;49.754;6.106;2023-05-10T01:52:36;13.50;99.90
12726;DHT22;6427;49.754;6.106;2023-05-10T01:55:04;13.70;99.90
12726;DHT22;6427;49.754;6.106;2023-05-10T01:57:34;13.70;99.90
12726;DHT22;6427;49.754;6.106;2023-05-10T01:59:57;13.70;99.90
12726;DHT22;6427;49.754;6.106;2023-05-10T02:02:25;13.70;99.90
12726;DHT22;6427;49.754;6.106;2023-05-10T02:04:53;13.60;99.90
12726;DHT22;6427;49.754;6.106;2023-05-10T02:07:21;13.60;99.90
12726;DHT22;6427;49.754;6.106;2023-05-10T02:09:49;13.60;99.90
12726;DHT22;6427;49.754;6.106;2023-05-10T02:12:17;13.60;99.90
12726;DHT22;6427;49.754;6.106;2023-05-10T02:14:45;13.60;99.90
12726;DHT22;6427;49.754;6.106;2023-05-10T02:17:12;13.60;99.90
12726;DHT22;6427;49.754;6.106;2023-05-10T02:19:40;13.60;99.90
12726;DHT22;6427;49.754;6.106;2023-05-10T02:22:09;13.60;99.90
12726;DHT22;6427;49.754;6.106;2023-05-10T02:24:36;13.60;99.90
12726;DHT22;6427;49.754;6.106;2023-05-10T02:27:03;13.60;99.90
12726;DHT22;6427;49.754;6.106;2023-05-10T02:29:31;13.60;99.90
12726;DHT22;6427;49.754;6.106;2023-05-10T02:31:58;13.60;99.90
12726;DHT22;6427;49.754;6.106;2023-05-10T02:34:26;13.60;99.90
12726;DHT22;6427;49.754;6.106;2023-05-10T02:36:55;13.60;99.90
12726;DHT22;6427;49.754;6.106;2023-05-10T02:39:22;13.60;99.90
12726;DHT22;6427;49.754;6.106;2023-05-10T02:41:50;13.70;99.90
12726;DHT22;6427;49.754;6.106;2023-05-10T02:44:18;13.70;99.90
12726;DHT22;6427;49.754;6.106;2023-05-10T02:46:46;13.60;99.90
12726;DHT22;6427;49.754;6.106;2023-05-10T02:49:13;13.60;99.90
12726;DHT22;6427;49.754;6.106;2023-05-10T02:51:42;13.60;99.90
12726;DHT22;6427;49.754;6.106;2023-05-10T02:54:10;13.70;99.90
12726;DHT22;6427;49.754;6.106;2023-05-10T02:56:39;13.60;99.90
12726;DHT22;6427;49.754;6.106;2023-05-10T02:59:04;13.60;99.90
12726;DHT22;6427;49.754;6.106;2023-05-10T03:01:32;13.60;99.90
12726;DHT22;6427;49.754;6.106;2023-05-10T03:04:00;13.60;99.90
12726;DHT22;6427;49.754;6.106;2023-05-10T03:06:28;13.90;99.90
12726;DHT22;6427;49.754;6.106;2023-05-10T03:08:56;13.80;99.90
12726;DHT22;6427;49.754;6.106;2023-05-10T03:17:25;14.00;99.90
12726;DHT22;6427;49.754;6.106;2023-05-10T03:22:21;13.80;99.90
12726;DHT22;6427;49.754;6.106;2023-05-10T03:24:46;13.70;99.90
12726;DHT22;6427;49.754;6.106;2023-05-10T03:27:14;13.70;99.90
12726;DHT22;6427;49.754;6.106;2023-05-10T03:29:42;13.70;99.90
12726;DHT22;6427;49.754;6.106;2023-05-10T03:32:09;13.70;99.90
12726;DHT22;6427;49.754;6.106;2023-05-10T03:34:40;13.70;99.90
12726;DHT22;6427;49.754;6.106;2023-05-10T03:37:05;13.60;99.90
12726;DHT22;6427;49.754;6.106;2023-05-10T03:39:33;13.60;99.90
12726;DHT22;6427;49.754;6.106;2023-05-10T03:42:01;13.60;99.90
12726;DHT22;6427;49.754;6.106;2023-05-10T03:44:29;13.60;99.90
12726;DHT22;6427;49.754;6.106;2023-05-10T03:46:57;13.50;99.90
12726;DHT22;6427;49.754;6.106;2023-05-10T03:49:24;13.50;99.90
12726;DHT22;6427;49.754;6.106;2023-05-10T03:51:52;13.50;99.90
12726;DHT22;6427;49.754;6.106;2023-05-10T03:54:20;13.40;99.90
12726;DHT22;6427;49.754;6.106;2023-05-10T03:56:48;13.40;99.90
12726;DHT22;6427;49.754;6.106;2023-05-10T03:59:15;13.40;99.90
12726;DHT22;6427;49.754;6.106;2023-05-10T04:01:43;13.40;99.90
12726;DHT22;6427;49.754;6.106;2023-05-10T04:04:11;13.30;99.90
12726;DHT22;6427;49.754;6.106;2023-05-10T04:06:38;13.30;99.90
12726;DHT22;6427;49.754;6.106;2023-05-10T04:09:06;13.30;99.90
12726;DHT22;6427;49.754;6.106;2023-05-10T04:11:33;13.20;99.90
12726;DHT22;6427;49.754;6.106;2023-05-10T04:14:01;13.20;99.90
12726;DHT22;6427;49.754;6.106;2023-05-10T04:16:29;13.10;99.90
12726;DHT22;6427;49.754;6.106;2023-05-10T04:18:57;13.10;99.90
12726;DHT22;6427;49.754;6.106;2023-05-10T04:21:25;13.10;99.90
12726;DHT22;6427;49.754;6.106;2023-05-10T04:23:52;13.10;99.90
12726;DHT22;6427;49.754;6.106;2023-05-10T04:26:20;13.00;99.90
12726;DHT22;6427;49.754;6.106;2023-05-10T04:28:48;13.00;99.90
12726;DHT22;6427;49.754;6.106;2023-05-10T04:31:15;13.00;99.90
12726;DHT22;6427;49.754;6.106;2023-05-10T04:33:44;13.00;99.90
12726;DHT22;6427;49.754;6.106;2023-05-10T04:36:11;13.00;99.90
12726;DHT22;6427;49.754;6.106;2023-05-10T04:38:39;13.00;99.90
12726;DHT22;6427;49.754;6.106;2023-05-10T04:41:07;13.20;99.90
12726;DHT22;6427;49.754;6.106;2023-05-10T04:43:35;13.40;99.90
12726;DHT22;6427;49.754;6.106;2023-05-10T04:46:03;13.40;99.90
12726;DHT22;6427;49.754;6.106;2023-05-10T04:48:31;13.30;99.90
12726;DHT22;6427;49.754;6.106;2023-05-10T04:50:59;13.30;99.90
12726;DHT22;6427;49.754;6.106;2023-05-10T04:53:28;13.20;99.90
12726;DHT22;6427;49.754;6.106;2023-05-10T04:55:56;13.20;99.90
12726;DHT22;6427;49.754;6.106;2023-05-10T04:58:24;13.20;99.90
12726;DHT22;6427;49.754;6.106;2023-05-10T05:00:51;13.20;99.90
12726;DHT22;6427;49.754;6.106;2023-05-10T05:03:19;13.40;99.90
12726;DHT22;6427;49.754;6.106;2023-05-10T05:05:47;13.40;99.90
12726;DHT22;6427;49.754;6.106;2023-05-10T05:08:14;13.40;99.90
12726;DHT22;6427;49.754;6.106;2023-05-10T05:10:42;13.30;99.90
12726;DHT22;6427;49.754;6.106;2023-05-10T05:13:10;13.30;99.90
12726;DHT22;6427;49.754;6.106;2023-05-10T05:15:38;13.30;99.90
12726;DHT22;6427;49.754;6.106;2023-05-10T05:18:06;13.30;99.90
12726;DHT22;6427;49.754;6.106;2023-05-10T05:20:33;13.30;99.90
12726;DHT22;6427;49.754;6.106;2023-05-10T05:23:01;13.20;99.90
12726;DHT22;6427;49.754;6.106;2023-05-10T05:25:28;13.20;99.90
12726;DHT22;6427;49.754;6.106;2023-05-10T05:27:56;13.10;99.90
12726;DHT22;6427;49.754;6.106;2023-05-10T05:30:23;13.10;99.90
12726;DHT22;6427;49.754;6.106;2023-05-10T05:32:52;13.10;99.90
12726;DHT22;6427;49.754;6.106;2023-05-10T05:35:19;13.10;99.90
12726;DHT22;6427;49.754;6.106;2023-05-10T05:37:47;13.10;99.90
12726;DHT22;6427;49.754;6.106;2023-05-10T05:40:14;13.10;99.90
12726;DHT22;6427;49.754;6.106;2023-05-10T05:42:43;13.10;99.90
12726;DHT22;6427;49.754;6.106;2023-05-10T05:45:10;13.10;99.90
12726;DHT22;6427;49.754;6.106;2023-05-10T05:47:39;13.20;99.90
12726;DHT22;6427;49.754;6.106;2023-05-10T05:50:06;13.20;99.90
12726;DHT22;6427;49.754;6.106;2023-05-10T05:52:34;13.20;99.90
12726;DHT22;6427;49.754;6.106;2023-05-10T05:55:02;13.20;99.90
12726;DHT22;6427;49.754;6.106;2023-05-10T05:57:29;13.30;99.90
12726;DHT22;6427;49.754;6.106;2023-05-10T05:59:58;13.30;99.90
12726;DHT22;6427;49.754;6.106;2023-05-10T06:02:25;13.30;99.90
12726;DHT22;6427;49.754;6.106;2023-05-10T06:04:53;13.40;99.90
12726;DHT22;6427;49.754;6.106;2023-05-10T06:07:21;13.40;99.90
12726;DHT22;6427;49.754;6.106;2023-05-10T06:09:49;13.40;99.90
12726;DHT22;6427;49.754;6.106;2023-05-10T06:12:17;13.40;99.90
12726;DHT22;6427;49.754;6.106;2023-05-10T06:14:45;13.40;99.90
12726;DHT22;6427;49.754;6.106;2023-05-10T06:17:13;13.40;99.90
12726;DHT22;6427;49.754;6.106;2023-05-10T06:19:40;13.60;99.90
12726;DHT22;6427;49.754;6.106;2023-05-10T06:22:08;13.70;99.90
12726;DHT22;6427;49.754;6.106;2023-05-10T06:24:35;13.70;99.90
12726;DHT22;6427;49.754;6.106;2023-05-10T06:27:03;13.70;99.90
12726;DHT22;6427;49.754;6.106;2023-05-10T06:29:31;13.70;99.90
12726;DHT22;6427;49.754;6.106;2023-05-10T06:31:59;13.70;99.90
12726;DHT22;6427;49.754;6.106;2023-05-10T06:34:27;13.70;99.90
12726;DHT22;6427;49.754;6.106;2023-05-10T06:36:55;13.90;99.90
12726;DHT22;6427;49.754;6.106;2023-05-10T06:39:22;13.90;99.90
12726;DHT22;6427;49.754;6.106;2023-05-10T06:41:50;13.90;99.90
12726;DHT22;6427;49.754;6.106;2023-05-10T06:44:18;13.90;99.90
12726;DHT22;6427;49.754;6.106;2023-05-10T06:46:45;13.90;99.90
12726;DHT22;6427;49.754;6.106;2023-05-10T06:49:13;13.90;99.90
12726;DHT22;6427;49.754;6.106;2023-05-10T06:51:41;13.90;99.90
12726;DHT22;6427;49.754;6.106;2023-05-10T06:54:09;14.00;99.90
12726;DHT22;6427;49.754;6.106;2023-05-10T06:56:37;13.90;99.90
12726;DHT22;6427;49.754;6.106;2023-05-10T06:59:05;14.00;99.90
12726;DHT22;6427;49.754;6.106;2023-05-10T07:01:32;14.00;99.90
12726;DHT22;6427;49.754;6.106;2023-05-10T07:04:00;14.00;99.90
12726;DHT22;6427;49.754;6.106;2023-05-10T07:06:27;14.20;99.90
12726;DHT22;6427;49.754;6.106;2023-05-10T07:08:55;14.20;99.90
12726;DHT22;6427;49.754;6.106;2023-05-10T07:11:23;14.20;99.90
12726;DHT22;6427;49.754;6.106;2023-05-10T07:13:51;14.20;99.90
12726;DHT22;6427;49.754;6.106;2023-05-10T07:16:19;14.10;99.90
12726;DHT22;6427;49.754;6.106;2023-05-10T07:18:46;14.10;99.90
12726;DHT22;6427;49.754;6.106;2023-05-10T07:21:14;14.10;99.90
12726;DHT22;6427;49.754;6.106;2023-05-10T07:23:42;14.20;99.90
12726;DHT22;6427;49.754;6.106;2023-05-10T07:26:10;14.10;99.90
12726;DHT22;6427;49.754;6.106;2023-05-10T07:28:37;14.20;99.90
12726;DHT22;6427;49.754;6.106;2023-05-10T07:31:06;14.30;99.90
12726;DHT22;6427;49.754;6.106;2023-05-10T07:33:33;14.30;99.90
12726;DHT22;6427;49.754;6.106;2023-05-10T07:36:01;14.40;99.90
12726;DHT22;6427;49.754;6.106;2023-05-10T07:38:29;14.50;99.90
12726;DHT22;6427;49.754;6.106;2023-05-10T07:40:56;14.60;99.90
12726;DHT22;6427;49.754;6.106;2023-05-10T07:43:24;14.60;99.90
12726;DHT22;6427;49.754;6.106;2023-05-10T07:45:52;14.70;99.90
12726;DHT22;6427;49.754;6.106;2023-05-10T07:48:19;14.80;99.90
12726;DHT22;6427;49.754;6.106;2023-05-10T07:50:47;14.90;99.90
12726;DHT22;6427;49.754;6.106;2023-05-10T07:53:15;15.10;99.90
12726;DHT22;6427;49.754;6.106;2023-05-10T07:55:42;15.10;99.90
12726;DHT22;6427;49.754;6.106;2023-05-10T07:58:10;15.10;99.90
12726;DHT22;6427;49.754;6.106;2023-05-10T08:00:39;15.30;99.90
12726;DHT22;6427;49.754;6.106;2023-05-10T08:03:06;15.30;99.90
12726;DHT22;6427;49.754;6.106;2023-05-10T08:05:34;15.20;99.90
12726;DHT22;6427;49.754;6.106;2023-05-10T08:08:01;15.20;99.90
12726;DHT22;6427;49.754;6.106;2023-05-10T08:10:29;15.10;99.90
12726;DHT22;6427;49.754;6.106;2023-05-10T08:12:57;14.90;99.90
12726;DHT22;6427;49.754;6.106;2023-05-10T08:15:25;14.60;99.90
12726;DHT22;6427;49.754;6.106;2023-05-10T08:17:53;14.60;99.90
12726;DHT22;6427;49.754;6.106;2023-05-10T08:20:20;14.50;99.90
12726;DHT22;6427;49.754;6.106;2023-05-10T08:22:48;14.60;99.90
12726;DHT22;6427;49.754;6.106;2023-05-10T08:25:16;14.40;99.90
12726;DHT22;6427;49.754;6.106;2023-05-10T08:27:44;14.40;99.90
12726;DHT22;6427;49.754;6.106;2023-05-10T08:30:11;14.30;99.90
12726;DHT22;6427;49.754;6.106;2023-05-10T08:32:40;14.20;99.90
12726;DHT22;6427;49.754;6.106;2023-05-10T08:35:07;14.20;99.90
12726;DHT22;6427;49.754;6.106;2023-05-10T08:37:35;14.20;99.90
12726;DHT22;6427;49.754;6.106;2023-05-10T08:40:02;14.20;99.90
12726;DHT22;6427;49.754;6.106;2023-05-10T08:42:31;14.20;99.90
12726;DHT22;6427;49.754;6.106;2023-05-10T08:44:58;14.20;99.90
12726;DHT22;6427;49.754;6.106;2023-05-10T08:47:26;14.30;99.90
12726;DHT22;6427;49.754;6.106;2023-05-10T08:49:53;14.30;99.90
12726;DHT22;6427;49.754;6.106;2023-05-10T08:52:21;14.30;99.90
12726;DHT22;6427;49.754;6.106;2023-05-10T08:54:48;14.20;99.90
12726;DHT22;6427;49.754;6.106;2023-05-10T08:57:16;14.40;99.90
12726;DHT22;6427;49.754;6.106;2023-05-10T08:59:44;14.40;99.90
12726;DHT22;6427;49.754;6.106;2023-05-10T09:02:11;14.40;99.90
12726;DHT22;6427;49.754;6.106;2023-05-10T09:04:39;14.30;99.90
12726;DHT22;6427;49.754;6.106;2023-05-10T09:07:07;14.30;99.90
12726;DHT22;6427;49.754;6.106;2023-05-10T09:09:35;14.30;99.90
12726;DHT22;6427;49.754;6.106;2023-05-10T09:12:02;14.30;99.90
12726;DHT22;6427;49.754;6.106;2023-05-10T09:14:30;14.50;99.90
12726;DHT22;6427;49.754;6.106;2023-05-10T09:16:57;14.50;99.90
12726;DHT22;6427;49.754;6.106;2023-05-10T09:19:25;14.60;99.90
12726;DHT22;6427;49.754;6.106;2023-05-10T09:21:52;14.60;99.90
12726;DHT22;6427;49.754;6.106;2023-05-10T09:24:20;14.60;99.90
12726;DHT22;6427;49.754;6.106;2023-05-10T09:26:48;14.70;99.90
12726;DHT22;6427;49.754;6.106;2023-05-10T09:29:15;14.70;99.90
12726;DHT22;6427;49.754;6.106;2023-05-10T09:31:46;14.80;99.90
12726;DHT22;6427;49.754;6.106;2023-05-10T09:34:20;14.90;99.90
12726;DHT22;6427;49.754;6.106;2023-05-10T09:36:53;14.90;99.90
12726;DHT22;6427;49.754;6.106;2023-05-10T09:39:20;15.00;99.90
12726;DHT22;6427;49.754;6.106;2023-05-10T09:41:48;15.00;99.90
12726;DHT22;6427;49.754;6.106;2023-05-10T09:44:18;15.10;99.90
12726;DHT22;6427;49.754;6.106;2023-05-10T09:46:49;15.20;99.90
12726;DHT22;6427;49.754;6.106;2023-05-10T09:49:16;15.50;99.90
12726;DHT22;6427;49.754;6.106;2023-05-10T09:51:44;15.80;99.90
12726;DHT22;6427;49.754;6.106;2023-05-10T09:54:15;16.00;99.90
12726;DHT22;6427;49.754;6.106;2023-05-10T09:56:42;16.20;99.90
12726;DHT22;6427;49.754;6.106;2023-05-10T09:59:10;16.10;99.90
12726;DHT22;6427;49.754;6.106;2023-05-10T10:01:37;16.00;99.90
12726;DHT22;6427;49.754;6.106;2023-05-10T10:04:08;15.90;99.90
12726;DHT22;6427;49.754;6.106;2023-05-10T10:06:39;15.80;99.90
12726;DHT22;6427;49.754;6.106;2023-05-10T10:09:06;15.90;99.90
12726;DHT22;6427;49.754;6.106;2023-05-10T10:11:34;16.10;99.90
12726;DHT22;6427;49.754;6.106;2023-05-10T10:14:01;16.00;99.90
12726;DHT22;6427;49.754;6.106;2023-05-10T10:16:29;15.90;99.90
12726;DHT22;6427;49.754;6.106;2023-05-10T10:18:58;15.80;99.90
12726;DHT22;6427;49.754;6.106;2023-05-10T10:21:25;15.70;99.90
12726;DHT22;6427;49.754;6.106;2023-05-10T10:23:53;15.70;99.90
12726;DHT22;6427;49.754;6.106;2023-05-10T10:26:20;15.60;99.90
12726;DHT22;6427;49.754;6.106;2023-05-10T10:28:57;15.70;99.90
12726;DHT22;6427;49.754;6.106;2023-05-10T10:34:28;15.70;99.90
12726;DHT22;6427;49.754;6.106;2023-05-10T10:36:58;15.70;99.90
12726;DHT22;6427;49.754;6.106;2023-05-10T10:39:27;16.10;99.90
12726;DHT22;6427;49.754;6.106;2023-05-10T10:41:55;16.00;99.90
12726;DHT22;6427;49.754;6.106;2023-05-10T10:49:32;16.40;99.90
12726;DHT22;6427;49.754;6.106;2023-05-10T10:54:52;16.30;99.90
12726;DHT22;6427;49.754;6.106;2023-05-10T10:57:20;16.30;99.90
12726;DHT22;6427;49.754;6.106;2023-05-10T10:59:47;16.30;99.90
12726;DHT22;6427;49.754;6.106;2023-05-10T11:02:34;16.30;99.90
12726;DHT22;6427;49.754;6.106;2023-05-10T11:08:08;16.40;99.90
12726;DHT22;6427;49.754;6.106;2023-05-10T11:10:34;16.30;99.90
12726;DHT22;6427;49.754;6.106;2023-05-10T11:13:02;16.30;99.90
12726;DHT22;6427;49.754;6.106;2023-05-10T11:15:30;16.30;99.90
12726;DHT22;6427;49.754;6.106;2023-05-10T11:17:57;16.30;99.90
12726;DHT22;6427;49.754;6.106;2023-05-10T11:20:27;16.30;99.90
12726;DHT22;6427;49.754;6.106;2023-05-10T11:22:56;16.30;99.90
12726;DHT22;6427;49.754;6.106;2023-05-10T11:25:26;16.30;99.90
12726;DHT22;6427;49.754;6.106;2023-05-10T11:27:54;16.50;99.90
12726;DHT22;6427;49.754;6.106;2023-05-10T11:30:22;16.50;99.90
12726;DHT22;6427;49.754;6.106;2023-05-10T11:32:50;16.50;99.90
12726;DHT22;6427;49.754;6.106;2023-05-10T11:35:18;16.60;99.90
12726;DHT22;6427;49.754;6.106;2023-05-10T11:37:47;16.70;99.90
12726;DHT22;6427;49.754;6.106;2023-05-10T11:40:14;16.80;99.90
12726;DHT22;6427;49.754;6.106;2023-05-10T11:42:42;16.90;99.90
12726;DHT22;6427;49.754;6.106;2023-05-10T11:45:10;17.20;99.90
12726;DHT22;6427;49.754;6.106;2023-05-10T11:47:38;17.30;99.90
12726;DHT22;6427;49.754;6.106;2023-05-10T11:50:05;17.40;99.90
12726;DHT22;6427;49.754;6.106;2023-05-10T11:52:36;17.40;99.90
12726;DHT22;6427;49.754;6.106;2023-05-10T11:55:03;17.50;99.90
12726;DHT22;6427;49.754;6.106;2023-05-10T11:57:31;17.50;99.90
12726;DHT22;6427;49.754;6.106;2023-05-10T11:59:59;17.50;99.90
12726;DHT22;6427;49.754;6.106;2023-05-10T12:02:26;17.50;99.90
12726;DHT22;6427;49.754;6.106;2023-05-10T12:04:54;17.60;99.90
12726;DHT22;6427;49.754;6.106;2023-05-10T12:07:22;17.50;99.90
12726;DHT22;6427;49.754;6.106;2023-05-10T12:10:12;17.50;99.90
12726;DHT22;6427;49.754;6.106;2023-05-10T12:12:39;17.50;99.90
12726;DHT22;6427;49.754;6.106;2023-05-10T12:15:06;17.60;99.90
12726;DHT22;6427;49.754;6.106;2023-05-10T12:17:34;17.60;99.90
12726;DHT22;6427;49.754;6.106;2023-05-10T12:20:15;17.60;99.90
12726;DHT22;6427;49.754;6.106;2023-05-10T12:22:52;17.50;99.90
12726;DHT22;6427;49.754;6.106;2023-05-10T12:25:19;17.50;99.90
12726;DHT22;6427;49.754;6.106;2023-05-10T12:27:56;17.50;99.90
12726;DHT22;6427;49.754;6.106;2023-05-10T12:30:24;17.60;99.90
12726;DHT22;6427;49.754;6.106;2023-05-10T12:32:51;17.60;99.90
12726;DHT22;6427;49.754;6.106;2023-05-10T12:35:19;17.60;99.90
12726;DHT22;6427;49.754;6.106;2023-05-10T12:37:47;17.60;99.90
12726;DHT22;6427;49.754;6.106;2023-05-10T12:40:14;17.60;99.90
12726;DHT22;6427;49.754;6.106;2023-05-10T12:42:42;17.60;99.90
12726;DHT22;6427;49.754;6.106;2023-05-10T12:45:10;17.60;99.90
12726;DHT22;6427;49.754;6.106;2023-05-10T12:47:38;17.60;99.90
12726;DHT22;6427;49.754;6.106;2023-05-10T12:50:05;17.50;99.90
12726;DHT22;6427;49.754;6.106;2023-05-10T12:52:33;17.50;99.90
12726;DHT22;6427;49.754;6.106;2023-05-10T12:55:01;17.60;99.90
12726;DHT22;6427;49.754;6.106;2023-05-10T12:57:29;17.70;99.90
12726;DHT22;6427;49.754;6.106;2023-05-10T12:59:57;17.60;99.90
12726;DHT22;6427;49.754;6.106;2023-05-10T13:02:25;17.60;99.90
12726;DHT22;6427;49.754;6.106;2023-05-10T13:04:54;17.60;99.90
12726;DHT22;6427;49.754;6.106;2023-05-10T13:07:22;17.80;99.90
12726;DHT22;6427;49.754;6.106;2023-05-10T13:09:50;17.90;99.90
12726;DHT22;6427;49.754;6.106;2023-05-10T13:12:18;17.90;99.90
12726;DHT22;6427;49.754;6.106;2023-05-10T13:14:46;17.80;99.90
12726;DHT22;6427;49.754;6.106;2023-05-10T13:17:13;18.00;99.90
12726;DHT22;6427;49.754;6.106;2023-05-10T13:19:41;18.00;99.90
12726;DHT22;6427;49.754;6.106;2023-05-10T13:22:08;18.30;99.40
12726;DHT22;6427;49.754;6.106;2023-05-10T13:24:36;18.30;98.70
12726;DHT22;6427;49.754;6.106;2023-05-10T13:27:04;18.10;98.80
12726;DHT22;6427;49.754;6.106;2023-05-10T13:29:32;18.10;98.80
12726;DHT22;6427;49.754;6.106;2023-05-10T13:32:00;18.00;98.40
12726;DHT22;6427;49.754;6.106;2023-05-10T13:34:27;17.80;98.50
12726;DHT22;6427;49.754;6.106;2023-05-10T13:36:55;17.80;98.70
12726;DHT22;6427;49.754;6.106;2023-05-10T13:39:23;17.70;99.00
12726;DHT22;6427;49.754;6.106;2023-05-10T13:41:51;17.80;98.50
12726;DHT22;6427;49.754;6.106;2023-05-10T13:44:19;18.00;98.60
12726;DHT22;6427;49.754;6.106;2023-05-10T13:46:47;18.00;98.60
12726;DHT22;6427;49.754;6.106;2023-05-10T13:49:14;18.30;98.70
12726;DHT22;6427;49.754;6.106;2023-05-10T13:51:42;18.60;98.30
12726;DHT22;6427;49.754;6.106;2023-05-10T13:54:09;18.90;97.70
12726;DHT22;6427;49.754;6.106;2023-05-10T13:56:37;19.00;97.00
12726;DHT22;6427;49.754;6.106;2023-05-10T13:59:04;19.30;96.60
12726;DHT22;6427;49.754;6.106;2023-05-10T14:01:32;19.30;96.10
12726;DHT22;6427;49.754;6.106;2023-05-10T14:03:59;19.30;95.70
12726;DHT22;6427;49.754;6.106;2023-05-10T14:06:27;19.30;95.10
12726;DHT22;6427;49.754;6.106;2023-05-10T14:08:55;19.30;94.60
12726;DHT22;6427;49.754;6.106;2023-05-10T14:11:22;19.40;94.20
12726;DHT22;6427;49.754;6.106;2023-05-10T14:13:50;19.50;93.70
12726;DHT22;6427;49.754;6.106;2023-05-10T14:16:17;19.60;94.20
12726;DHT22;6427;49.754;6.106;2023-05-10T14:18:46;19.90;93.30
12726;DHT22;6427;49.754;6.106;2023-05-10T14:21:14;20.00;93.10
12726;DHT22;6427;49.754;6.106;2023-05-10T14:23:41;20.00;93.10
12726;DHT22;6427;49.754;6.106;2023-05-10T14:26:09;20.20;92.60
12726;DHT22;6427;49.754;6.106;2023-05-10T14:28:36;20.30;92.10
12726;DHT22;6427;49.754;6.106;2023-05-10T14:31:04;20.40;91.30
12726;DHT22;6427;49.754;6.106;2023-05-10T14:33:32;20.50;90.50
12726;DHT22;6427;49.754;6.106;2023-05-10T14:35:59;20.60;90.00
12726;DHT22;6427;49.754;6.106;2023-05-10T14:38:27;20.70;87.50
12726;DHT22;6427;49.754;6.106;2023-05-10T14:40:55;20.70;86.80
12726;DHT22;6427;49.754;6.106;2023-05-10T14:43:22;20.60;86.00
12726;DHT22;6427;49.754;6.106;2023-05-10T14:45:51;20.50;85.70
12726;DHT22;6427;49.754;6.106;2023-05-10T14:48:18;20.40;85.80
12726;DHT22;6427;49.754;6.106;2023-05-10T14:50:46;20.30;86.40
12726;DHT22;6427;49.754;6.106;2023-05-10T14:53:13;20.40;85.30
12726;DHT22;6427;49.754;6.106;2023-05-10T14:55:42;20.10;85.10
12726;DHT22;6427;49.754;6.106;2023-05-10T14:58:09;20.10;85.10
12726;DHT22;6427;49.754;6.106;2023-05-10T15:00:37;20.00;85.90
12726;DHT22;6427;49.754;6.106;2023-05-10T15:03:04;19.90;86.60
12726;DHT22;6427;49.754;6.106;2023-05-10T15:05:33;19.70;86.50
12726;DHT22;6427;49.754;6.106;2023-05-10T15:08:00;19.70;86.50
12726;DHT22;6427;49.754;6.106;2023-05-10T15:10:28;19.60;86.40
12726;DHT22;6427;49.754;6.106;2023-05-10T15:12:56;19.50;86.50
12726;DHT22;6427;49.754;6.106;2023-05-10T15:15:23;19.40;86.20
12726;DHT22;6427;49.754;6.106;2023-05-10T15:17:51;19.30;87.10
12726;DHT22;6427;49.754;6.106;2023-05-10T15:20:18;19.30;89.20
12726;DHT22;6427;49.754;6.106;2023-05-10T15:22:46;19.50;88.60
12726;DHT22;6427;49.754;6.106;2023-05-10T15:25:14;20.00;88.00
12726;DHT22;6427;49.754;6.106;2023-05-10T15:27:42;20.00;87.90
12726;DHT22;6427;49.754;6.106;2023-05-10T15:30:10;20.30;86.30
12726;DHT22;6427;49.754;6.106;2023-05-10T15:32:38;20.50;83.20
12726;DHT22;6427;49.754;6.106;2023-05-10T15:35:07;20.50;83.20
12726;DHT22;6427;49.754;6.106;2023-05-10T15:37:34;20.60;81.70
12726;DHT22;6427;49.754;6.106;2023-05-10T15:40:02;20.70;82.70
12726;DHT22;6427;49.754;6.106;2023-05-10T15:42:32;21.00;79.00
12726;DHT22;6427;49.754;6.106;2023-05-10T15:44:59;21.00;79.40
12726;DHT22;6427;49.754;6.106;2023-05-10T15:47:29;20.90;79.30
12726;DHT22;6427;49.754;6.106;2023-05-10T15:49:54;20.80;80.10
12726;DHT22;6427;49.754;6.106;2023-05-10T15:52:22;20.70;79.60
12726;DHT22;6427;49.754;6.106;2023-05-10T15:54:50;20.60;79.50
12726;DHT22;6427;49.754;6.106;2023-05-10T15:57:18;20.70;77.50
12726;DHT22;6427;49.754;6.106;2023-05-10T15:59:45;20.70;77.50
12726;DHT22;6427;49.754;6.106;2023-05-10T16:02:13;20.80;76.50
12726;DHT22;6427;49.754;6.106;2023-05-10T16:04:41;21.00;76.40
12726;DHT22;6427;49.754;6.106;2023-05-10T16:07:09;21.30;76.70
12726;DHT22;6427;49.754;6.106;2023-05-10T16:09:37;21.90;76.20
12726;DHT22;6427;49.754;6.106;2023-05-10T16:12:05;21.90;76.10
12726;DHT22;6427;49.754;6.106;2023-05-10T16:14:32;22.20;75.10
12726;DHT22;6427;49.754;6.106;2023-05-10T16:17:00;22.50;73.50
12726;DHT22;6427;49.754;6.106;2023-05-10T16:19:29;22.50;73.50